createdAt,value
2022-12-25T00:00:06.630Z,17.60
2022-12-25T00:01:10.628Z,15.67
2022-12-25T00:02:12.502Z,15.00
2022-12-25T00:03:14.419Z,14.57
2022-12-25T00:04:16.374Z,14.35
2022-12-25T00:05:18.156Z,17.00
2022-12-25T00:06:20.080Z,16.77
2022-12-25T00:07:21.820Z,16.38
2022-12-25T00:08:23.545Z,16.50
2022-12-25T00:09:26.152Z,11.77
2022-12-25T00:10:27.937Z,15.02
2022-12-25T00:11:29.716Z,13.93
2022-12-25T00:12:31.449Z,14.60
2022-12-25T00:13:34.217Z,12.98
2022-12-25T00:14:36.016Z,12.75
2022-12-25T00:15:40.664Z,12.55
2022-12-25T00:16:42.655Z,14.00
2022-12-25T00:17:44.572Z,12.55
2022-12-25T00:18:47.226Z,13.32
2022-12-25T00:19:49.007Z,13.60
2022-12-25T00:21:02.497Z,11.45
2022-12-25T00:22:04.280Z,12.97
2022-12-25T00:23:07.954Z,14.98
2022-12-25T00:24:09.995Z,13.65
2022-12-25T00:25:12.056Z,12.23
2022-12-25T00:26:18.469Z,11.82
2022-12-25T00:27:20.308Z,14.32
2022-12-25T00:28:23.728Z,19.20
2022-12-25T00:29:25.803Z,13.20
2022-12-25T00:30:27.593Z,13.68
2022-12-25T00:31:29.442Z,15.48
2022-12-25T00:32:31.407Z,11.93
2022-12-25T00:33:36.106Z,12.88
2022-12-25T00:34:38.217Z,14.13
2022-12-25T00:35:40.743Z,13.45
2022-12-25T00:36:42.981Z,14.55
2022-12-25T00:37:45.412Z,13.55
2022-12-25T00:38:47.854Z,12.77
2022-12-25T00:39:49.699Z,14.88
2022-12-25T00:40:51.558Z,15.30
2022-12-25T00:41:53.578Z,14.60
2022-12-25T00:42:55.568Z,12.60
2022-12-25T00:43:57.439Z,11.80
2022-12-25T00:44:59.634Z,12.45
2022-12-25T00:46:04.280Z,16.83
2022-12-25T00:47:06.357Z,14.07
2022-12-25T00:48:08.264Z,13.60
2022-12-25T00:49:11.818Z,13.25
2022-12-25T00:50:14.005Z,13.30
2022-12-25T00:51:15.725Z,14.80
2022-12-25T00:52:23.684Z,17.45
2022-12-25T00:53:27.407Z,15.90
2022-12-25T00:54:29.345Z,17.20
2022-12-25T00:55:31.711Z,17.58
2022-12-25T00:56:33.743Z,17.08
2022-12-25T00:57:35.817Z,16.55
2022-12-25T00:58:37.651Z,17.25
2022-12-25T00:59:39.496Z,18.33
2022-12-25T01:00:41.301Z,16.45
2022-12-25T01:01:43.754Z,19.02
2022-12-25T01:02:45.862Z,17.63
2022-12-25T01:03:47.691Z,16.20
2022-12-25T01:04:58.550Z,17.88
2022-12-25T01:06:03.179Z,16.02
2022-12-25T01:07:04.929Z,16.08
2022-12-25T01:08:06.782Z,16.17
2022-12-25T01:09:08.612Z,16.92
2022-12-25T01:10:11.021Z,16.60
2022-12-25T01:11:12.951Z,14.93
2022-12-25T01:12:14.773Z,17.08
2022-12-25T01:13:16.619Z,16.15
2022-12-25T01:14:18.413Z,14.10
2022-12-25T01:15:20.842Z,21.55
2022-12-25T01:16:22.807Z,32.38
2022-12-25T01:17:24.791Z,24.42
2022-12-25T01:18:26.532Z,44.33
2022-12-25T01:19:28.239Z,39.13
2022-12-25T01:20:29.972Z,34.35
2022-12-25T01:21:32.075Z,61.90
2022-12-25T01:22:33.770Z,60.60
2022-12-25T01:23:36.192Z,32.45
2022-12-25T01:24:37.840Z,20.90
2022-12-25T01:25:39.638Z,18.63
2022-12-25T01:26:41.414Z,23.65
2022-12-25T01:27:43.145Z,22.15
2022-12-25T01:28:45.349Z,19.90
2022-12-25T01:29:47.225Z,17.20
2022-12-25T01:30:49.686Z,19.92
2022-12-25T01:31:51.500Z,18.90
2022-12-25T01:32:53.282Z,14.40
2022-12-25T01:33:55.020Z,16.92
2022-12-25T01:34:56.791Z,13.20
2022-12-25T01:35:58.577Z,15.35
2022-12-25T01:37:00.339Z,14.35
2022-12-25T01:38:02.055Z,29.10
2022-12-25T01:39:04.550Z,22.48
2022-12-25T01:40:07.260Z,17.60
2022-12-25T01:41:09.750Z,19.58
2022-12-25T01:42:20.201Z,17.30
2022-12-25T01:43:26.640Z,13.85
2022-12-25T01:44:37.124Z,15.30
2022-12-25T01:45:43.871Z,17.60
2022-12-25T01:46:46.100Z,16.90
2022-12-25T01:47:48.022Z,14.20
2022-12-25T01:48:50.411Z,14.13
2022-12-25T01:49:52.215Z,14.57
2022-12-25T01:50:58.191Z,15.93
2022-12-25T01:52:06.825Z,15.73
2022-12-25T01:53:08.941Z,16.40
2022-12-25T01:54:18.427Z,18.75
2022-12-25T01:55:20.351Z,16.45
2022-12-25T01:56:22.291Z,14.93
2022-12-25T01:57:28.988Z,15.65
2022-12-25T01:58:31.138Z,32.13
2022-12-25T01:59:33.285Z,40.97
2022-12-25T02:02:41.601Z,14.73
2022-12-25T02:03:43.579Z,11.43
2022-12-25T02:04:56.126Z,14.02
2022-12-25T02:05:59.122Z,14.07
2022-12-25T02:07:00.954Z,16.05
2022-12-25T02:08:08.567Z,16.30
2022-12-25T02:09:10.448Z,16.88
2022-12-25T02:10:13.095Z,16.83
2022-12-25T02:11:14.920Z,16.45
2022-12-25T02:12:37.595Z,17.92
2022-12-25T02:13:39.424Z,17.17
2022-12-25T02:14:41.341Z,15.13
2022-12-25T02:16:16.342Z,18.67
2022-12-25T02:17:36.193Z,16.08
2022-12-25T02:18:57.090Z,14.60
2022-12-25T02:20:11.024Z,14.70
2022-12-25T02:21:43.300Z,13.70
2022-12-25T02:23:04.382Z,15.77
2022-12-25T02:24:21.400Z,13.50
2022-12-25T02:25:41.541Z,16.17
2022-12-25T02:27:00.026Z,15.20
2022-12-25T02:28:10.933Z,15.77
2022-12-25T02:29:23.019Z,14.02
2022-12-25T02:30:25.245Z,13.15
2022-12-25T02:31:43.042Z,13.30
2022-12-25T02:32:47.213Z,11.57
2022-12-25T02:34:13.595Z,12.27
2022-12-25T02:35:19.760Z,16.17
2022-12-25T02:36:25.083Z,17.02
2022-12-25T02:37:30.016Z,15.13
2022-12-25T02:38:38.220Z,17.20
2022-12-25T02:39:52.338Z,13.80
2022-12-25T02:41:01.567Z,11.52
2022-12-25T02:42:07.569Z,13.15
2022-12-25T02:43:16.133Z,13.40
2022-12-25T02:44:23.060Z,12.07
2022-12-25T02:45:52.833Z,13.90
2022-12-25T02:46:55.679Z,13.13
2022-12-25T02:47:57.887Z,15.00
2022-12-25T02:49:03.785Z,12.10
2022-12-25T02:50:08.083Z,10.48
2022-12-25T02:51:12.932Z,12.35
2022-12-25T02:52:22.349Z,13.48
2022-12-25T02:53:24.385Z,14.57
2022-12-25T02:54:32.507Z,13.73
2022-12-25T02:55:39.304Z,13.03
2022-12-25T02:56:44.352Z,12.15
2022-12-25T02:57:50.754Z,12.20
2022-12-25T02:58:52.786Z,12.88
2022-12-25T02:59:57.225Z,11.73
2022-12-25T03:01:30.353Z,11.98
2022-12-25T03:02:34.102Z,13.05
2022-12-25T03:03:40.543Z,11.18
2022-12-25T03:04:44.656Z,10.90
2022-12-25T03:05:49.115Z,12.38
2022-12-25T03:07:06.618Z,12.63
2022-12-25T03:08:13.684Z,12.30
2022-12-25T03:09:28.892Z,10.98
2022-12-25T03:10:33.092Z,11.63
2022-12-25T03:11:35.120Z,11.20
2022-12-25T03:12:42.952Z,12.90
2022-12-25T03:13:49.940Z,13.15
2022-12-25T03:14:51.740Z,13.45
2022-12-25T03:15:53.833Z,12.57
2022-12-25T03:16:58.986Z,13.85
2022-12-25T03:18:04.567Z,11.40
2022-12-25T03:19:06.603Z,15.38
2022-12-25T03:20:09.179Z,13.60
2022-12-25T03:21:11.131Z,10.57
2022-12-25T03:22:19.388Z,12.18
2022-12-25T03:23:24.754Z,15.52
2022-12-25T03:24:26.588Z,12.02
2022-12-25T03:25:28.805Z,11.52
2022-12-25T03:26:30.695Z,12.13
2022-12-25T03:27:35.039Z,12.63
2022-12-25T03:28:36.921Z,12.83
2022-12-25T03:29:38.647Z,13.38
2022-12-25T03:30:53.976Z,16.23
2022-12-25T03:32:07.083Z,11.98
2022-12-25T03:33:44.376Z,14.75
2022-12-25T03:35:11.663Z,10.98
2022-12-25T03:36:20.585Z,16.75
2022-12-25T03:37:34.091Z,15.00
2022-12-25T03:38:55.189Z,13.23
2022-12-25T03:40:06.640Z,12.43
2022-12-25T03:41:17.916Z,20.33
2022-12-25T03:42:27.666Z,12.13
2022-12-25T03:43:49.378Z,13.98
2022-12-25T03:45:13.093Z,13.57
2022-12-25T03:46:17.684Z,13.65
2022-12-25T03:47:26.062Z,12.85
2022-12-25T03:48:31.406Z,16.38
2022-12-25T03:49:50.090Z,14.50
2022-12-25T03:50:56.573Z,17.48
2022-12-25T03:52:00.933Z,16.65
2022-12-25T03:53:22.608Z,15.57
2022-12-25T03:54:29.041Z,15.40
2022-12-25T03:55:31.684Z,18.00
2022-12-25T03:56:35.693Z,16.92
2022-12-25T03:57:37.442Z,16.70
2022-12-25T03:58:51.184Z,16.25
2022-12-25T03:59:53.022Z,15.85
2022-12-25T04:00:54.809Z,16.70
2022-12-25T04:01:56.778Z,14.07
2022-12-25T04:02:58.610Z,15.38
2022-12-25T04:04:00.615Z,18.47
2022-12-25T04:05:02.452Z,16.38
2022-12-25T04:06:04.361Z,17.38
2022-12-25T04:07:06.071Z,21.05
2022-12-25T04:08:07.745Z,22.95
2022-12-25T04:09:09.486Z,16.35
2022-12-25T04:10:11.535Z,17.08
2022-12-25T04:11:13.266Z,15.35
2022-12-25T04:12:15.092Z,19.45
2022-12-25T04:13:16.803Z,17.02
2022-12-25T04:14:18.555Z,14.63
2022-12-25T04:15:20.368Z,14.20
2022-12-25T04:16:22.173Z,15.43
2022-12-25T04:17:24.036Z,15.90
2022-12-25T04:18:25.697Z,16.10
2022-12-25T04:19:27.430Z,15.80
2022-12-25T04:20:29.307Z,14.32
2022-12-25T04:21:31.046Z,18.10
2022-12-25T04:22:32.839Z,16.48
2022-12-25T04:23:34.659Z,19.70
2022-12-25T04:24:36.464Z,16.60
2022-12-25T04:25:38.186Z,15.88
2022-12-25T04:26:40.006Z,18.50
2022-12-25T04:27:41.725Z,16.52
2022-12-25T04:28:43.514Z,14.98
2022-12-25T04:29:45.327Z,15.00
2022-12-25T04:30:47.673Z,15.55
2022-12-25T04:31:49.715Z,15.55
2022-12-25T04:32:56.525Z,16.02
2022-12-25T04:33:58.217Z,17.23
2022-12-25T04:34:59.913Z,15.17
2022-12-25T04:36:01.620Z,15.30
2022-12-25T04:37:03.393Z,14.85
2022-12-25T04:38:05.116Z,17.70
2022-12-25T04:39:07.204Z,18.52
2022-12-25T04:40:09.545Z,18.90
2022-12-25T04:41:13.457Z,16.35
2022-12-25T04:42:16.372Z,16.45
2022-12-25T04:43:18.109Z,17.70
2022-12-25T04:44:20.062Z,15.65
2022-12-25T04:45:21.722Z,18.30
2022-12-25T04:46:23.567Z,16.23
2022-12-25T04:47:25.381Z,16.80
2022-12-25T04:48:28.656Z,14.98
2022-12-25T04:49:30.386Z,15.85
2022-12-25T04:50:32.208Z,15.60
2022-12-25T04:51:34.081Z,19.80
2022-12-25T04:52:38.101Z,16.98
2022-12-25T04:53:39.916Z,17.02
2022-12-25T04:54:41.801Z,20.83
2022-12-25T04:55:43.700Z,18.07
2022-12-25T04:56:46.132Z,19.40
2022-12-25T04:57:48.021Z,17.48
2022-12-25T04:58:49.750Z,17.33
2022-12-25T04:59:51.496Z,17.85
2022-12-25T05:00:53.252Z,14.20
2022-12-25T05:01:55.028Z,16.85
2022-12-25T05:02:58.901Z,16.70
2022-12-25T05:04:00.907Z,16.55
2022-12-25T05:05:02.740Z,16.30
2022-12-25T05:06:05.316Z,16.63
2022-12-25T05:07:07.013Z,13.75
2022-12-25T05:08:08.769Z,13.63
2022-12-25T05:09:10.785Z,13.95
2022-12-25T05:10:12.792Z,19.67
2022-12-25T05:11:15.881Z,17.70
2022-12-25T05:12:17.675Z,17.63
2022-12-25T05:13:19.586Z,17.13
2022-12-25T05:14:21.421Z,17.92
2022-12-25T05:15:23.345Z,16.42
2022-12-25T05:16:25.192Z,17.33
2022-12-25T05:17:26.975Z,14.27
2022-12-25T05:18:28.692Z,15.32
2022-12-25T05:19:30.505Z,19.45
2022-12-25T05:20:38.157Z,15.10
2022-12-25T05:21:41.764Z,17.17
2022-12-25T05:22:43.429Z,14.35
2022-12-25T05:23:45.332Z,16.23
2022-12-25T05:24:47.092Z,16.77
2022-12-25T05:25:49.147Z,17.15
2022-12-25T05:26:50.842Z,16.27
2022-12-25T05:27:54.159Z,13.27
2022-12-25T05:28:56.030Z,17.65
2022-12-25T05:29:57.840Z,15.35
2022-12-25T05:30:59.672Z,16.63
2022-12-25T05:32:02.029Z,17.27
2022-12-25T05:33:04.069Z,15.48
2022-12-25T05:34:05.748Z,17.58
2022-12-25T05:35:07.860Z,16.77
2022-12-25T05:36:11.902Z,14.50
2022-12-25T05:37:14.024Z,15.87
2022-12-25T05:38:15.853Z,14.40
2022-12-25T05:39:17.611Z,15.50
2022-12-25T05:40:19.446Z,15.45
2022-12-25T05:41:21.289Z,15.75
2022-12-25T05:42:23.033Z,17.55
2022-12-25T05:43:25.144Z,15.75
2022-12-25T05:44:27.008Z,18.58
2022-12-25T05:45:28.791Z,16.75
2022-12-25T05:46:30.632Z,18.08
2022-12-25T05:47:32.463Z,26.00
2022-12-25T05:48:36.556Z,20.75
2022-12-25T05:49:38.309Z,18.95
2022-12-25T05:50:40.096Z,18.20
2022-12-25T05:51:41.812Z,16.27
2022-12-25T05:52:43.833Z,15.40
2022-12-25T05:53:45.521Z,14.70
2022-12-25T05:54:47.328Z,13.48
2022-12-25T05:55:49.110Z,14.57
2022-12-25T05:56:50.878Z,15.73
2022-12-25T05:57:52.681Z,13.07
2022-12-25T05:58:54.483Z,13.75
2022-12-25T05:59:56.520Z,13.52
2022-12-25T06:00:58.324Z,17.45
2022-12-25T06:02:00.403Z,15.27
2022-12-25T06:03:02.481Z,16.15
2022-12-25T06:04:08.532Z,15.23
2022-12-25T06:05:14.218Z,15.75
2022-12-25T06:06:16.101Z,15.60
2022-12-25T06:07:17.895Z,13.93
2022-12-25T06:08:19.907Z,14.80
2022-12-25T06:09:21.608Z,16.95
2022-12-25T06:10:23.661Z,16.02
2022-12-25T06:11:25.580Z,21.08
2022-12-25T06:12:27.369Z,30.98
2022-12-25T06:13:29.305Z,24.20
2022-12-25T06:14:31.096Z,17.42
2022-12-25T06:15:33.046Z,18.00
2022-12-25T06:16:38.258Z,12.63
2022-12-25T06:17:40.342Z,17.00
2022-12-25T06:18:46.031Z,15.30
2022-12-25T06:19:47.776Z,16.33
2022-12-25T06:20:49.474Z,14.98
2022-12-25T06:21:55.267Z,17.95
2022-12-25T06:22:56.925Z,16.45
2022-12-25T06:24:00.555Z,14.93
2022-12-25T06:25:02.482Z,17.08
2022-12-25T06:26:10.075Z,16.35
2022-12-25T06:27:11.985Z,17.80
2022-12-25T06:28:13.718Z,13.82
2022-12-25T06:29:15.730Z,14.87
2022-12-25T06:30:17.440Z,15.02
2022-12-25T06:31:21.690Z,15.38
2022-12-25T06:32:23.504Z,14.38
2022-12-25T06:33:25.213Z,15.35
2022-12-25T06:34:27.410Z,13.55
2022-12-25T06:35:29.218Z,16.35
2022-12-25T06:36:30.983Z,14.82
2022-12-25T06:37:32.787Z,14.43
2022-12-25T06:38:34.810Z,12.32
2022-12-25T06:39:36.487Z,13.83
2022-12-25T06:40:38.355Z,14.77
2022-12-25T06:41:40.064Z,15.43
2022-12-25T06:42:41.927Z,11.82
2022-12-25T06:43:43.899Z,16.63
2022-12-25T06:44:45.675Z,12.63
2022-12-25T06:45:47.414Z,12.88
2022-12-25T06:46:49.452Z,11.23
2022-12-25T06:47:51.218Z,11.95
2022-12-25T06:48:53.101Z,14.43
2022-12-25T06:49:54.977Z,13.73
2022-12-25T06:50:56.751Z,14.25
2022-12-25T06:51:58.584Z,13.00
2022-12-25T06:53:00.289Z,17.17
2022-12-25T06:54:02.371Z,14.07
2022-12-25T06:55:04.361Z,13.90
2022-12-25T06:56:15.351Z,16.92
2022-12-25T06:57:17.082Z,17.13
2022-12-25T06:58:18.989Z,14.27
2022-12-25T06:59:20.859Z,13.82
2022-12-25T07:00:22.609Z,13.10
2022-12-25T07:01:31.125Z,14.07
2022-12-25T07:02:34.626Z,12.43
2022-12-25T07:03:36.655Z,13.73
2022-12-25T07:04:46.142Z,12.95
2022-12-25T07:05:48.132Z,14.90
2022-12-25T07:06:50.014Z,15.73
2022-12-25T07:07:55.280Z,11.85
2022-12-25T07:08:58.766Z,16.15
2022-12-25T07:10:00.593Z,15.85
2022-12-25T07:11:03.949Z,13.03
2022-12-25T07:12:22.037Z,14.20
2022-12-25T07:13:26.297Z,14.70
2022-12-25T07:14:28.221Z,11.02
2022-12-25T07:15:30.007Z,18.50
2022-12-25T07:16:31.884Z,11.23
2022-12-25T07:17:34.694Z,12.35
2022-12-25T07:18:36.359Z,12.52
2022-12-25T07:19:44.485Z,16.20
2022-12-25T07:20:46.880Z,15.20
2022-12-25T07:21:48.906Z,23.40
2022-12-25T07:22:52.241Z,17.00
2022-12-25T07:23:54.008Z,16.85
2022-12-25T07:24:55.888Z,25.48
2022-12-25T07:25:59.806Z,24.17
2022-12-25T07:27:01.556Z,29.35
2022-12-25T07:28:03.402Z,16.00
2022-12-25T07:29:05.243Z,18.35
2022-12-25T07:30:07.974Z,26.55
2022-12-25T07:31:17.869Z,19.40
2022-12-25T07:32:19.663Z,23.93
2022-12-25T07:33:21.665Z,27.15
2022-12-25T07:34:23.491Z,23.92
2022-12-25T07:35:25.202Z,23.30
2022-12-25T07:36:28.186Z,16.13
2022-12-25T07:37:31.691Z,17.70
2022-12-25T07:38:35.046Z,23.27
2022-12-25T07:39:36.827Z,17.10
2022-12-25T07:40:39.750Z,23.95
2022-12-25T07:41:43.615Z,16.73
2022-12-25T07:42:46.973Z,16.63
2022-12-25T07:43:52.823Z,15.82
2022-12-25T07:44:56.226Z,15.93
2022-12-25T07:46:04.303Z,16.90
2022-12-25T07:47:06.189Z,13.88
2022-12-25T07:48:13.353Z,13.65
2022-12-25T07:49:19.577Z,13.88
2022-12-25T07:50:23.631Z,11.75
2022-12-25T07:51:26.413Z,13.52
2022-12-25T07:52:28.183Z,12.88
2022-12-25T07:53:31.507Z,11.40
2022-12-25T07:54:35.228Z,13.85
2022-12-25T07:55:37.309Z,15.23
2022-12-25T07:56:40.603Z,11.40
2022-12-25T07:57:43.891Z,12.98
2022-12-25T07:58:47.503Z,9.90
2022-12-25T07:59:58.809Z,12.85
2022-12-25T08:01:12.856Z,11.98
2022-12-25T08:02:17.086Z,9.55
2022-12-25T08:03:24.972Z,9.57
2022-12-25T08:04:28.824Z,14.33
2022-12-25T08:05:33.735Z,11.50
2022-12-25T08:06:37.355Z,9.52
2022-12-25T08:07:41.210Z,14.93
2022-12-25T08:08:45.153Z,7.45
2022-12-25T08:09:48.907Z,10.43
2022-12-25T08:10:51.998Z,9.82
2022-12-25T08:11:55.738Z,13.80
2022-12-25T08:12:59.037Z,11.25
2022-12-25T08:14:02.579Z,10.75
2022-12-25T08:15:05.893Z,8.97
2022-12-25T08:16:11.547Z,12.45
2022-12-25T08:17:15.200Z,10.32
2022-12-25T08:18:21.259Z,11.70
2022-12-25T08:19:27.459Z,13.02
2022-12-25T08:20:30.780Z,10.30
2022-12-25T08:21:34.629Z,9.18
2022-12-25T08:22:38.106Z,9.18
2022-12-25T08:23:45.876Z,15.98
2022-12-25T08:24:49.148Z,13.00
2022-12-25T08:25:52.626Z,10.30
2022-12-25T08:26:55.718Z,9.68
2022-12-25T08:28:00.394Z,9.32
2022-12-25T08:29:03.959Z,8.38
2022-12-25T08:30:07.761Z,7.22
2022-12-25T08:31:21.666Z,8.52
2022-12-25T08:32:24.956Z,9.20
2022-12-25T08:33:27.780Z,8.07
2022-12-25T08:34:31.727Z,6.93
2022-12-25T08:35:36.039Z,9.63
2022-12-25T08:36:39.004Z,9.93
2022-12-25T08:37:42.286Z,8.20
2022-12-25T08:38:45.821Z,7.35
2022-12-25T08:39:50.826Z,8.90
2022-12-25T08:40:54.331Z,9.35
2022-12-25T08:41:57.489Z,7.00
2022-12-25T08:43:01.167Z,8.65
2022-12-25T08:44:05.803Z,8.35
2022-12-25T08:45:09.539Z,8.27
2022-12-25T08:46:13.345Z,9.88
2022-12-25T08:47:17.174Z,9.10
2022-12-25T08:48:21.500Z,22.55
2022-12-25T08:49:24.774Z,19.02
2022-12-25T08:50:27.700Z,27.75
2022-12-25T08:51:31.260Z,14.02
2022-12-25T08:52:34.615Z,7.90
2022-12-25T08:53:38.004Z,10.65
2022-12-25T08:54:41.389Z,13.15
2022-12-25T08:55:44.735Z,9.90
2022-12-25T08:56:51.209Z,8.20
2022-12-25T08:57:54.686Z,9.90
2022-12-25T08:58:57.813Z,8.52
2022-12-25T09:00:01.248Z,7.30
2022-12-25T09:01:04.670Z,8.00
2022-12-25T09:02:08.357Z,6.82
2022-12-25T09:03:12.362Z,6.20
2022-12-25T09:04:15.670Z,7.55
2022-12-25T09:05:19.133Z,7.15
2022-12-25T09:06:22.725Z,5.50
2022-12-25T09:07:24.628Z,7.57
2022-12-25T09:08:27.984Z,8.40
2022-12-25T09:09:31.437Z,5.65
2022-12-25T09:10:37.747Z,6.68
2022-12-25T09:11:41.007Z,5.85
2022-12-25T09:12:42.966Z,6.10
2022-12-25T09:13:46.615Z,6.43
2022-12-25T09:14:50.035Z,5.95
2022-12-25T09:15:53.417Z,5.40
2022-12-25T09:16:56.873Z,6.32
2022-12-25T09:18:00.384Z,8.25
2022-12-25T09:19:04.253Z,6.10
2022-12-25T09:20:08.164Z,7.68
2022-12-25T09:21:13.679Z,8.50
2022-12-25T09:22:16.820Z,9.20
2022-12-25T09:23:20.454Z,11.77
2022-12-25T09:24:24.083Z,13.10
2022-12-25T09:25:27.546Z,12.82
2022-12-25T09:26:31.018Z,10.75
2022-12-25T09:27:34.223Z,12.65
2022-12-25T09:28:37.767Z,14.15
2022-12-25T09:29:41.307Z,10.23
2022-12-25T09:30:44.781Z,7.47
2022-12-25T09:31:47.924Z,11.25
2022-12-25T09:32:51.438Z,14.32
2022-12-25T09:33:57.636Z,11.60
2022-12-25T09:35:00.361Z,11.05
2022-12-25T09:36:05.447Z,8.13
2022-12-25T09:37:07.305Z,21.92
2022-12-25T09:38:10.883Z,17.90
2022-12-25T09:39:12.723Z,24.35
2022-12-25T09:40:20.833Z,7.87
2022-12-25T09:41:53.547Z,8.88
2022-12-25T09:42:57.497Z,14.55
2022-12-25T09:44:14.212Z,10.93
2022-12-25T09:45:26.755Z,26.55
2022-12-25T09:46:40.512Z,11.00
2022-12-25T09:47:47.973Z,10.63
2022-12-25T09:49:06.273Z,17.63
2022-12-25T09:50:22.555Z,20.70
2022-12-25T09:51:27.061Z,20.25
2022-12-25T09:52:44.308Z,5.97
2022-12-25T09:54:01.989Z,8.27
2022-12-25T09:55:19.629Z,7.25
2022-12-25T09:56:26.669Z,9.45
2022-12-25T09:57:30.080Z,11.55
2022-12-25T09:58:34.929Z,7.63
2022-12-25T09:59:38.776Z,9.88
2022-12-25T10:00:52.850Z,5.95
2022-12-25T10:02:21.927Z,8.15
2022-12-25T10:04:22.552Z,6.45
2022-12-25T10:06:09.023Z,6.97
2022-12-25T10:07:36.108Z,5.80
2022-12-25T10:08:47.522Z,6.60
2022-12-25T10:10:11.614Z,4.25
2022-12-25T10:11:50.867Z,5.30
2022-12-25T10:13:12.209Z,5.40
2022-12-25T10:14:31.775Z,3.90
2022-12-25T10:15:45.843Z,3.90
2022-12-25T10:17:32.930Z,5.40
2022-12-25T10:18:49.785Z,4.00
2022-12-25T10:20:17.670Z,4.43
2022-12-25T10:21:21.125Z,3.72
2022-12-25T10:22:34.670Z,4.63
2022-12-25T10:23:44.639Z,5.45
2022-12-25T10:24:52.773Z,5.47
2022-12-25T10:25:56.368Z,15.10
2022-12-25T10:27:01.764Z,15.57
2022-12-25T10:28:12.928Z,6.07
2022-12-25T10:29:20.909Z,4.47
2022-12-25T10:30:26.901Z,3.65
2022-12-25T10:31:32.771Z,6.77
2022-12-25T10:32:36.427Z,5.03
2022-12-25T10:33:42.820Z,4.32
2022-12-25T10:34:49.070Z,4.68
2022-12-25T10:35:52.712Z,3.70
2022-12-25T10:36:59.113Z,6.10
2022-12-25T10:38:15.527Z,6.07
2022-12-25T10:39:25.482Z,4.97
2022-12-25T10:40:49.455Z,5.22
2022-12-25T10:43:58.211Z,4.00
2022-12-25T10:45:09.498Z,3.35
2022-12-25T10:46:15.495Z,4.32
2022-12-25T10:47:42.154Z,4.20
2022-12-25T10:48:50.374Z,3.30
2022-12-25T10:49:54.490Z,4.28
2022-12-25T10:51:00.853Z,4.57
2022-12-25T10:52:04.988Z,4.32
2022-12-25T10:53:40.048Z,4.47
2022-12-25T10:54:49.477Z,4.07
2022-12-25T10:56:05.220Z,3.07
2022-12-25T10:57:14.057Z,5.18
2022-12-25T10:58:24.855Z,6.47
2022-12-25T10:59:35.780Z,6.15
2022-12-25T11:00:41.152Z,3.17
2022-12-25T11:01:45.004Z,2.65
2022-12-25T11:02:51.786Z,3.65
2022-12-25T11:03:55.270Z,5.90
2022-12-25T11:05:29.210Z,4.35
2022-12-25T11:06:36.402Z,3.30
2022-12-25T11:07:46.458Z,3.43
2022-12-25T11:09:02.523Z,4.63
2022-12-25T11:10:23.641Z,4.88
2022-12-25T11:11:28.380Z,2.92
2022-12-25T11:12:44.743Z,2.83
2022-12-25T11:14:03.548Z,3.08
2022-12-25T11:15:38.755Z,3.00
2022-12-25T11:16:42.943Z,4.32
2022-12-25T11:17:55.773Z,5.05
2022-12-25T11:19:00.398Z,4.10
2022-12-25T11:20:04.379Z,2.77
2022-12-25T11:21:39.400Z,3.30
2022-12-25T11:22:47.751Z,4.53
2022-12-25T11:24:01.789Z,4.15
2022-12-25T11:25:24.041Z,4.03
2022-12-25T11:26:28.220Z,5.47
2022-12-25T11:27:41.685Z,5.00
2022-12-25T11:28:46.549Z,4.88
2022-12-25T11:29:53.011Z,5.55
2022-12-25T11:31:15.032Z,3.28
2022-12-25T11:33:04.683Z,7.77
2022-12-25T11:34:54.562Z,3.08
2022-12-25T11:36:06.589Z,3.22
2022-12-25T11:37:25.723Z,4.97
2022-12-25T11:38:38.575Z,2.90
2022-12-25T11:40:54.631Z,4.35
2022-12-25T11:41:35.498Z,4.55
2022-12-25T11:43:16.204Z,5.03
2022-12-25T11:45:15.811Z,4.07
2022-12-25T11:50:36.202Z,4.90
2022-12-25T11:52:09.528Z,3.47
2022-12-25T11:53:31.564Z,3.15
2022-12-25T11:55:01.020Z,3.45
2022-12-25T11:56:27.026Z,2.78
2022-12-25T11:57:37.045Z,3.58
2022-12-25T11:58:57.464Z,5.47
2022-12-25T12:00:05.488Z,3.47
2022-12-25T12:01:32.452Z,5.78
2022-12-25T12:02:46.290Z,4.60
2022-12-25T12:04:09.262Z,7.55
2022-12-25T12:05:51.833Z,4.93
2022-12-25T12:07:27.445Z,5.22
2022-12-25T12:08:48.824Z,7.53
2022-12-25T12:10:27.236Z,11.63
2022-12-25T12:11:40.902Z,10.90
2022-12-25T12:13:20.808Z,10.68
2022-12-25T12:15:00.894Z,6.55
2022-12-25T12:16:03.191Z,9.40
2022-12-25T12:17:08.034Z,6.63
2022-12-25T12:18:23.626Z,7.97
2022-12-25T12:19:27.083Z,7.15
2022-12-25T12:20:32.215Z,3.58
2022-12-25T12:21:34.656Z,5.78
2022-12-25T12:22:37.764Z,13.23
2022-12-25T12:24:17.822Z,10.70
2022-12-25T12:25:22.723Z,12.65
2022-12-25T12:26:37.379Z,9.27
2022-12-25T12:27:45.121Z,8.63
2022-12-25T12:28:50.450Z,15.57
2022-12-25T12:29:55.894Z,8.68
2022-12-25T12:31:06.302Z,15.88
2022-12-25T12:32:24.029Z,11.23
2022-12-25T12:33:33.424Z,6.35
2022-12-25T12:45:36.681Z,5.00
2022-12-25T12:46:50.685Z,5.43
2022-12-25T12:47:55.549Z,5.77
2022-12-25T12:49:34.467Z,6.63
2022-12-25T12:50:40.395Z,15.32
2022-12-25T12:51:44.621Z,10.98
2022-12-25T12:52:49.831Z,22.38
2022-12-25T12:53:51.646Z,21.42
2022-12-25T12:55:08.713Z,8.77
2022-12-25T12:56:18.165Z,20.08
2022-12-25T12:57:30.479Z,7.78
2022-12-25T12:58:35.807Z,5.55
2022-12-25T12:59:44.523Z,9.33
2022-12-25T13:01:14.637Z,8.40
2022-12-25T13:02:33.455Z,8.10
2022-12-25T13:04:05.385Z,7.43
2022-12-25T13:07:20.796Z,10.40
2022-12-25T13:08:48.386Z,6.43
2022-12-25T13:10:23.892Z,9.90
2022-12-25T13:11:37.906Z,7.82
2022-12-25T13:12:42.770Z,6.80
2022-12-25T13:13:51.004Z,14.80
2022-12-25T13:14:54.744Z,24.73
2022-12-25T13:15:57.847Z,11.90
2022-12-25T13:17:02.808Z,13.18
2022-12-25T13:18:11.066Z,4.00
2022-12-25T13:19:20.970Z,5.80
2022-12-25T13:20:39.966Z,6.20
2022-12-25T13:21:52.980Z,4.80
2022-12-25T13:22:56.825Z,6.57
2022-12-25T13:24:12.667Z,5.32
2022-12-25T13:25:22.944Z,4.97
2022-12-25T13:26:26.191Z,5.35
2022-12-25T13:27:31.527Z,4.97
2022-12-25T13:28:37.972Z,6.18
2022-12-25T13:29:41.696Z,7.07
2022-12-25T13:30:51.118Z,5.35
2022-12-25T13:31:55.533Z,3.65
2022-12-25T13:33:06.143Z,4.38
2022-12-25T13:36:56.176Z,4.75
2022-12-25T13:38:30.169Z,4.00
2022-12-25T13:39:48.742Z,3.47
2022-12-25T13:43:16.326Z,3.78
2022-12-25T13:44:40.662Z,4.93
2022-12-25T13:46:00.389Z,5.45
2022-12-25T13:47:37.956Z,4.65
2022-12-25T13:49:36.303Z,4.95
2022-12-25T13:50:41.114Z,4.80
2022-12-25T13:51:45.479Z,6.22
2022-12-25T13:52:52.008Z,5.30
2022-12-25T13:54:12.165Z,4.32
2022-12-25T13:55:26.565Z,5.20
2022-12-25T13:56:31.309Z,7.60
2022-12-25T13:58:07.516Z,7.70
2022-12-25T13:59:21.474Z,7.15
2022-12-25T14:00:30.206Z,6.63
2022-12-25T14:01:34.453Z,5.43
2022-12-25T14:02:38.839Z,7.30
2022-12-25T14:03:44.953Z,8.52
2022-12-25T14:04:48.283Z,7.80
2022-12-25T14:06:03.341Z,12.43
2022-12-25T14:07:13.022Z,9.27
2022-12-25T14:08:25.209Z,8.82
2022-12-25T14:09:28.561Z,5.93
2022-12-25T14:10:39.864Z,6.18
2022-12-25T14:11:46.363Z,8.15
2022-12-25T14:12:51.523Z,6.40
2022-12-25T14:13:59.064Z,6.10
2022-12-25T14:15:04.086Z,8.73
2022-12-25T14:16:07.228Z,8.63
2022-12-25T14:17:12.954Z,8.80
2022-12-25T14:18:21.433Z,9.23
2022-12-25T14:19:30.178Z,3.97
2022-12-25T14:20:38.307Z,5.22
2022-12-25T14:21:44.675Z,3.67
2022-12-25T14:22:52.827Z,9.80
2022-12-25T14:23:56.223Z,6.28
2022-12-25T14:26:23.596Z,5.63
2022-12-25T14:27:30.917Z,12.40
2022-12-25T14:28:34.178Z,18.17
2022-12-25T14:29:45.588Z,14.95
2022-12-25T14:30:48.993Z,23.48
2022-12-25T14:31:53.523Z,16.77
2022-12-25T14:32:57.812Z,15.35
2022-12-25T14:34:03.847Z,12.68
2022-12-25T14:35:07.211Z,8.23
2022-12-25T14:36:14.000Z,8.68
2022-12-25T14:37:23.541Z,6.57
2022-12-25T14:38:31.666Z,4.27
2022-12-25T14:39:38.735Z,4.10
2022-12-25T14:40:42.215Z,4.90
2022-12-25T14:41:53.995Z,4.13
2022-12-25T14:43:02.394Z,5.05
2022-12-25T14:44:26.247Z,8.15
2022-12-25T14:45:37.229Z,5.15
2022-12-25T14:46:40.806Z,5.60
2022-12-25T14:47:58.424Z,6.95
2022-12-25T14:49:05.617Z,5.05
2022-12-25T14:50:35.922Z,7.83
2022-12-25T14:51:40.396Z,4.63
2022-12-25T14:52:53.617Z,5.63
2022-12-25T14:53:58.885Z,4.07
2022-12-25T14:55:27.231Z,5.30
2022-12-25T14:56:32.946Z,4.93
2022-12-25T14:57:40.571Z,4.93
2022-12-25T14:58:53.313Z,4.30
2022-12-25T15:00:01.865Z,5.22
2022-12-25T15:01:06.460Z,3.03
2022-12-25T15:02:19.152Z,4.57
2022-12-25T15:03:28.370Z,3.15